Time;durP1;ratioP1;P1;durP2;ratioP2;P2;SDS_P1;SDS_P2;PMS_P1;PMS_P2;Temp;Humidity;BMP_temperature;BMP_pressure;BME280_temperature;BME280_humidity;BME280_pressure;Samples;Min_cycle;Max_cycle;Signal;HPM_P1;HPM_P2
2023/06/25 00:01:20;;;;;;;8.02;5.57;;;;;;;17.49;100.00;98855.34;4484803;31;20557;-66
2023/06/25 00:03:50;;;;;;;8.48;4.75;;;;;;;17.47;100.00;98860.00;4484791;31;20152;-66
2023/06/25 00:06:19;;;;;;;8.45;5.68;;;;;;;17.47;100.00;98857.34;4484618;32;20092;-66
2023/06/25 00:08:46;;;;;;;10.68;5.37;;;;;;;17.48;100.00;98853.69;4484732;31;20576;-66
2023/06/25 00:11:14;;;;;;;8.45;5.12;;;;;;;17.44;100.00;98856.88;4469703;31;20097;-66
2023/06/25 00:13:41;;;;;;;10.60;5.18;;;;;;;17.42;100.00;98858.88;4477408;32;20088;-66
2023/06/25 00:16:10;;;;;;;8.73;5.07;;;;;;;17.38;100.00;98855.75;4484780;31;20529;-66
2023/06/25 00:18:38;;;;;;;8.15;4.87;;;;;;;17.42;100.00;98865.00;4484695;31;20088;-66
2023/06/25 00:21:06;;;;;;;9.65;4.90;;;;;;;17.42;100.00;98866.81;4484312;31;20092;-66
2023/06/25 00:23:33;;;;;;;7.03;5.00;;;;;;;17.44;100.00;98863.00;4484440;31;20101;-66
2023/06/25 00:26:01;;;;;;;7.62;5.07;;;;;;;17.49;100.00;98871.22;4484360;31;20105;-66
2023/06/25 00:28:28;;;;;;;9.10;4.68;;;;;;;17.55;100.00;98867.03;4484458;31;20515;-66
2023/06/25 00:30:57;;;;;;;9.07;5.72;;;;;;;17.58;100.00;98881.72;4484553;31;20511;-66
2023/06/25 00:33:24;;;;;;;11.27;4.87;;;;;;;17.65;100.00;98880.00;4486337;32;20224;-66
2023/06/25 00:35:51;;;;;;;11.48;4.90;;;;;;;17.71;100.00;98876.66;4486171;31;20201;-66
2023/06/25 00:38:18;;;;;;;7.72;5.37;;;;;;;17.77;100.00;98873.28;4486183;31;20929;-66
2023/06/25 00:40:45;;;;;;;7.32;5.28;;;;;;;17.83;100.00;98882.34;4486377;31;20119;-66
2023/06/25 00:43:15;;;;;;;7.65;5.30;;;;;;;17.77;100.00;98883.06;4486226;31;20168;-66
2023/06/25 00:45:44;;;;;;;8.85;5.32;;;;;;;17.76;100.00;98882.25;4486180;31;20088;-66
2023/06/25 00:48:12;;;;;;;7.43;4.82;;;;;;;17.84;100.00;98879.50;4486236;31;20093;-66
2023/06/25 00:50:40;;;;;;;9.93;4.85;;;;;;;17.90;100.00;98884.09;4486102;31;20424;-66
2023/06/25 00:53:08;;;;;;;6.78;4.87;;;;;;;18.00;100.00;98889.16;4486493;31;20507;-66
2023/06/25 00:55:36;;;;;;;6.65;4.85;;;;;;;18.04;100.00;98892.25;4486177;31;20231;-66
2023/06/25 00:58:04;;;;;;;6.45;4.75;;;;;;;18.12;100.00;98886.03;4486180;31;20084;-66
2023/06/25 01:00:33;;;;;;;7.25;4.93;;;;;;;18.18;100.00;98894.09;4486076;31;20100;-66
2023/06/25 01:03:26;;;;;;;7.40;4.72;;;;;;;18.24;100.00;98895.16;4484955;32;20116;-66
2023/06/25 01:05:57;;;;;;;8.57;4.80;;;;;;;18.25;100.00;98883.56;4485974;31;20092;-66
2023/06/25 01:08:40;;;;;;;6.85;5.00;;;;;;;18.34;100.00;98885.12;4486039;31;20092;-66
2023/06/25 01:11:10;;;;;;;7.80;4.45;;;;;;;18.42;100.00;98881.53;4470988;32;20112;-66
2023/06/25 01:13:38;;;;;;;7.47;4.60;;;;;;;18.47;100.00;98873.84;4478356;32;20149;-66
2023/06/25 01:16:06;;;;;;;7.45;5.00;;;;;;;18.50;100.00;98870.84;4485738;31;20099;-66
2023/06/25 01:18:33;;;;;;;6.05;4.80;;;;;;;18.54;100.00;98864.13;4486026;31;20430;-66
2023/06/25 01:21:03;;;;;;;7.93;5.75;;;;;;;18.58;100.00;98859.28;4484725;32;20470;-66
2023/06/25 01:23:31;;;;;;;6.32;4.95;;;;;;;18.54;100.00;98863.31;4486107;31;20092;-66
2023/06/25 01:25:58;;;;;;;8.27;5.03;;;;;;;18.50;100.00;98854.91;4484660;32;20430;-66
2023/06/25 01:28:25;;;;;;;5.53;4.37;;;;;;;18.53;100.00;98851.06;4486033;31;20437;-66
2023/06/25 01:30:54;;;;;;;6.72;5.43;;;;;;;18.53;100.00;98848.41;4485919;31;20122;-66
2023/06/25 01:33:25;;;;;;;6.60;4.87;;;;;;;18.51;100.00;98848.59;4486183;31;20096;-66
2023/06/25 01:35:53;;;;;;;8.05;4.82;;;;;;;18.48;100.00;98848.97;4486207;31;20076;-66
2023/06/25 01:38:21;;;;;;;8.48;4.62;;;;;;;18.42;100.00;98847.06;4485779;31;20084;-66
2023/06/25 01:40:48;;;;;;;7.53;4.62;;;;;;;18.42;100.00;98855.00;4485762;31;20104;-66
2023/06/25 01:43:15;;;;;;;7.40;5.30;;;;;;;18.42;100.00;98857.66;4485833;31;20100;-66
2023/06/25 01:45:43;;;;;;;6.30;4.70;;;;;;;18.38;100.00;98848.41;4485973;31;20088;-66
2023/06/25 01:48:10;;;;;;;7.68;5.28;;;;;;;18.31;100.00;98858.16;4486037;32;20537;-66
2023/06/25 01:50:37;;;;;;;7.53;5.00;;;;;;;18.25;100.00;98851.75;4484715;32;20147;-66
2023/06/25 01:53:05;;;;;;;6.62;4.40;;;;;;;18.20;100.00;98848.84;4485773;31;20139;-66
2023/06/25 01:55:32;;;;;;;7.50;4.95;;;;;;;18.22;100.00;98844.16;4485909;31;20088;-66
2023/06/25 01:57:59;;;;;;;6.68;5.05;;;;;;;18.24;100.00;98848.28;4485762;31;20126;-66
2023/06/25 02:00:26;;;;;;;6.90;4.82;;;;;;;18.23;100.00;98846.62;4484571;32;20131;-66
2023/06/25 02:03:01;;;;;;;7.68;5.18;;;;;;;18.20;100.00;98852.31;4485830;31;20167;-66
2023/06/25 02:05:28;;;;;;;7.22;5.07;;;;;;;18.17;100.00;98847.38;4485835;31;20096;-66
2023/06/25 02:07:55;;;;;;;8.82;5.35;;;;;;;18.20;100.00;98852.31;4485795;31;20118;-66
2023/06/25 02:10:23;;;;;;;7.78;5.43;;;;;;;18.23;100.00;98848.47;4476606;31;20161;-66
2023/06/25 02:12:50;;;;;;;7.95;5.22;;;;;;;18.27;100.00;98850.56;4472843;32;20104;-66
2023/06/25 02:15:17;;;;;;;8.38;5.80;;;;;;;18.29;100.00;98854.84;4485875;32;20097;-66
2023/06/25 02:17:44;;;;;;;7.00;5.12;;;;;;;18.30;100.00;98852.00;4485697;31;20084;-66
2023/06/25 02:20:12;;;;;;;7.55;5.12;;;;;;;18.35;100.00;98859.41;4485883;31;20491;-66
2023/06/25 02:22:39;;;;;;;9.68;5.72;;;;;;;18.32;100.00;98857.13;4485432;31;20578;-66
2023/06/25 02:25:07;;;;;;;8.68;6.03;;;;;;;18.34;100.00;98863.09;4485693;32;20139;-66
2023/06/25 02:27:34;;;;;;;9.30;5.70;;;;;;;18.20;100.00;98857.59;4485365;31;20092;-66
2023/06/25 02:30:02;;;;;;;10.13;6.72;;;;;;;18.22;100.00;98863.53;4485354;31;20112;-66
2023/06/25 02:32:30;;;;;;;11.15;6.53;;;;;;;18.25;100.00;98857.87;4485355;31;20123;-66
2023/06/25 02:34:57;;;;;;;8.65;6.45;;;;;;;18.24;100.00;98858.03;4485919;31;20084;-66
2023/06/25 02:37:25;;;;;;;9.35;6.40;;;;;;;18.27;100.00;98858.53;4485273;31;20108;-66
2023/06/25 02:39:52;;;;;;;10.82;6.72;;;;;;;18.32;100.00;98860.63;4485370;31;20104;-66
2023/06/25 02:42:19;;;;;;;9.00;5.87;;;;;;;18.31;100.00;98861.62;4485369;31;20156;-66
2023/06/25 02:44:46;;;;;;;8.73;6.25;;;;;;;18.31;100.00;98863.44;4485536;32;20088;-66
2023/06/25 02:47:14;;;;;;;9.95;6.22;;;;;;;18.27;100.00;98861.16;4484100;32;20137;-66
2023/06/25 02:49:41;;;;;;;10.23;6.07;;;;;;;18.31;100.00;98858.16;4485349;31;20461;-66
2023/06/25 02:52:08;;;;;;;8.43;6.10;;;;;;;18.33;100.00;98856.13;4485410;31;20093;-66
2023/06/25 02:54:35;;;;;;;7.87;5.53;;;;;;;18.41;100.00;98864.81;4484730;31;20096;-66
2023/06/25 02:57:03;;;;;;;10.00;6.35;;;;;;;18.38;100.00;98859.88;4485422;31;20495;-66
2023/06/25 02:59:30;;;;;;;9.00;6.35;;;;;;;18.42;100.00;98860.31;4485216;31;20744;-66
2023/06/25 03:01:58;;;;;;;11.35;6.40;;;;;;;18.46;100.00;98866.91;4485767;32;20142;-66
2023/06/25 03:04:26;;;;;;;8.70;5.62;;;;;;;18.46;100.00;98861.59;4485461;31;20145;-66
2023/06/25 03:06:53;;;;;;;9.20;6.32;;;;;;;18.51;100.00;98858.37;4485765;31;20155;-66
2023/06/25 03:09:20;;;;;;;9.75;5.78;;;;;;;18.54;100.00;98865.97;4482828;31;20131;-66
2023/06/25 03:11:49;;;;;;;9.38;6.05;;;;;;;18.54;100.00;98865.97;4469931;32;20121;-66
2023/06/25 03:14:16;;;;;;;9.25;6.28;;;;;;;18.58;100.00;98873.37;4481723;32;20100;-66
2023/06/25 03:17:02;;;;;;;8.55;6.28;;;;;;;18.66;100.00;98871.63;4485409;31;20088;-66
2023/06/25 03:19:30;;;;;;;8.82;6.62;;;;;;;18.69;100.00;98873.91;4483562;32;20123;-66
2023/06/25 03:21:58;;;;;;;10.45;5.70;;;;;;;18.74;100.00;98864.38;4485315;31;20564;-66
2023/06/25 03:24:26;;;;;;;10.00;6.35;;;;;;;18.79;100.00;98867.28;4485380;31;20088;-66
2023/06/25 03:26:53;;;;;;;10.45;6.80;;;;;;;18.83;100.00;98870.38;4485293;31;20498;-66
2023/06/25 03:29:20;;;;;;;11.23;6.43;;;;;;;18.88;100.00;98864.53;4483905;32;20108;-66
2023/06/25 03:31:48;;;;;;;10.18;7.37;;;;;;;18.93;100.00;98868.25;4485048;31;20450;-66
2023/06/25 03:34:16;;;;;;;10.13;6.22;;;;;;;18.92;100.00;98871.09;4485338;31;20604;-66
2023/06/25 03:36:44;;;;;;;10.88;6.70;;;;;;;18.86;100.00;98870.03;4485304;31;20400;-66
2023/06/25 03:39:11;;;;;;;12.98;7.12;;;;;;;18.90;100.00;98866.00;4485013;31;20089;-66
2023/06/25 03:41:38;;;;;;;8.30;6.57;;;;;;;18.87;100.00;98863.72;4485086;32;20626;-66
2023/06/25 03:44:06;;;;;;;9.07;6.50;;;;;;;18.93;100.00;98862.16;4485095;31;20100;-66
2023/06/25 03:46:34;;;;;;;9.57;6.40;;;;;;;18.97;100.00;98874.03;4485455;31;20096;-66
2023/06/25 03:49:01;;;;;;;11.50;6.95;;;;;;;18.99;100.00;98873.84;4485109;31;20555;-66
2023/06/25 03:51:30;;;;;;;9.38;6.50;;;;;;;18.99;100.00;98868.53;4485279;31;20165;-66
2023/06/25 03:53:57;;;;;;;9.32;6.62;;;;;;;19.06;100.00;98874.72;4485072;31;20111;-66
2023/06/25 03:56:25;;;;;;;10.38;6.68;;;;;;;19.04;100.00;98868.78;4485150;31;20156;-66
2023/06/25 03:58:52;;;;;;;12.52;6.12;;;;;;;18.95;100.00;98866.22;4484743;31;20111;-66
2023/06/25 04:01:19;;;;;;;11.80;7.15;;;;;;;18.93;100.00;98872.75;4484898;32;20096;-66
2023/06/25 04:03:47;;;;;;;12.77;7.87;;;;;;;18.87;100.00;98863.72;4484861;31;20107;-66
2023/06/25 04:06:14;;;;;;;10.52;7.45;;;;;;;18.89;100.00;98868.84;4483678;32;20088;-66
2023/06/25 04:08:41;;;;;;;11.55;7.72;;;;;;;18.78;100.00;98867.47;4484541;31;20104;-66
2023/06/25 04:11:09;;;;;;;14.60;7.78;;;;;;;18.78;100.00;98875.44;4470605;31;20181;-66
2023/06/25 04:13:36;;;;;;;11.05;7.80;;;;;;;18.75;100.00;98881.13;4477061;32;20183;-66
2023/06/25 04:16:06;;;;;;;11.52;7.72;;;;;;;18.71;100.00;98877.19;4484860;31;20123;-66
2023/06/25 04:18:37;;;;;;;12.07;7.30;;;;;;;18.66;100.00;98874.28;4484961;32;20460;-66
2023/06/25 04:21:04;;;;;;;12.00;8.02;;;;;;;18.61;100.00;98874.84;4484628;31;20106;-66
2023/06/25 04:23:32;;;;;;;13.32;8.48;;;;;;;18.60;100.00;98871.34;4484896;31;20118;-66
2023/06/25 04:25:59;;;;;;;12.43;7.60;;;;;;;18.68;100.00;98873.06;4484896;31;20123;-66
2023/06/25 04:28:26;;;;;;;12.13;7.78;;;;;;;18.74;100.00;98863.53;4484407;31;20157;-66
2023/06/25 04:30:54;;;;;;;12.57;7.50;;;;;;;18.78;100.00;98859.50;4484798;31;20108;-66
2023/06/25 04:33:21;;;;;;;10.25;7.12;;;;;;;18.79;100.00;98863.81;4484377;31;20115;-66
2023/06/25 04:35:49;;;;;;;10.85;7.10;;;;;;;18.85;100.00;98862.22;4484599;31;20110;-66
2023/06/25 04:38:17;;;;;;;11.48;6.43;;;;;;;18.83;100.00;98866.91;4484668;31;20747;-66
2023/06/25 04:40:45;;;;;;;10.43;5.95;;;;;;;18.84;100.00;98869.38;4484105;31;20495;-66
2023/06/25 04:43:12;;;;;;;10.32;6.72;;;;;;;18.82;100.00;98859.94;4484229;31;20152;-66
2023/06/25 04:45:39;;;;;;;11.15;6.07;;;;;;;18.82;100.00;98865.25;4484314;31;20084;-66
2023/06/25 04:48:06;;;;;;;9.07;6.18;;;;;;;18.88;100.00;98856.56;4483328;32;20112;-66
2023/06/25 04:50:33;;;;;;;9.43;5.75;;;;;;;18.94;100.00;98869.06;4482882;32;20463;-66
2023/06/25 04:53:01;;;;;;;12.93;6.43;;;;;;;19.12;100.00;98868.62;4484138;32;20164;-66
2023/06/25 04:55:28;;;;;;;10.02;6.47;;;;;;;19.23;100.00;98867.31;4484087;31;20096;-66
2023/06/25 04:57:56;;;;;;;9.00;6.68;;;;;;;19.38;100.00;98869.88;4483995;31;20089;-66
2023/06/25 05:00:23;;;;;;;13.40;6.87;;;;;;;19.56;100.00;98864.94;4483628;32;20488;-66
2023/06/25 05:02:50;;;;;;;10.90;6.70;;;;;;;19.79;100.00;98859.41;4484119;31;20195;-66
2023/06/25 05:05:17;;;;;;;8.50;6.53;;;;;;;20.00;100.00;98870.97;4483727;31;20135;-66
2023/06/25 05:07:45;;;;;;;11.15;7.40;;;;;;;20.10;100.00;98873.28;4484190;31;20101;-66
2023/06/25 05:10:14;;;;;;;10.45;7.07;;;;;;;20.14;100.00;98875.38;4475654;31;20092;-66
2023/06/25 05:12:41;;;;;;;9.68;6.62;;;;;;;20.13;100.00;98868.41;4469886;32;20116;-66
2023/06/25 05:15:09;;;;;;;10.15;7.37;;;;;;;20.14;100.00;98870.03;4484024;32;20108;-66
2023/06/25 05:17:36;;;;;;;9.32;7.28;;;;;;;20.12;100.00;98874.75;4483985;31;20089;-66
2023/06/25 05:20:04;;;;;;;12.35;7.00;;;;;;;20.16;100.00;98872.50;4485927;31;20088;-66
2023/06/25 05:22:31;;;;;;;8.88;6.20;;;;;;;20.30;100.00;98868.06;4485889;31;20100;-66
2023/06/25 05:24:59;;;;;;;13.73;6.47;;;;;;;20.33;100.00;98873.00;4485912;31;20080;-66
2023/06/25 05:27:26;;;;;;;9.57;6.50;;;;;;;20.46;100.00;98877.56;4486037;31;20107;-66
2023/06/25 05:29:53;;;;;;;9.25;6.87;;;;;;;20.55;100.00;98881.69;4485992;31;20122;-66
2023/06/25 05:32:21;;;;;;;11.10;6.37;;;;;;;20.53;100.00;98881.06;4485706;31;20411;-66
2023/06/25 05:34:48;;;;;;;8.52;6.28;;;;;;;20.44;100.00;98887.56;4486009;31;20121;-66
2023/06/25 05:37:15;;;;;;;9.40;5.85;;;;;;;20.56;100.00;98888.66;4485929;31;20164;-66
2023/06/25 05:39:42;;;;;;;7.85;5.87;;;;;;;20.58;100.00;98888.47;4485848;31;20112;-66
2023/06/25 05:42:10;;;;;;;9.75;6.28;;;;;;;20.82;100.00;98900.47;4485977;31;20509;-66
2023/06/25 05:44:37;;;;;;;8.55;6.47;;;;;;;20.89;100.00;98909.28;4485797;31;20100;-66
2023/06/25 05:47:05;;;;;;;10.85;6.55;;;;;;;20.78;100.00;98907.19;4485870;31;20159;-66
2023/06/25 05:49:32;;;;;;;8.38;5.85;;;;;;;20.68;100.00;98908.41;4485888;31;20552;-66
2023/06/25 05:51:59;;;;;;;10.20;6.72;;;;;;;20.49;100.00;98893.13;4485824;32;20123;-66
2023/06/25 05:54:26;;;;;;;10.63;7.05;;;;;;;20.57;100.00;98895.63;4485947;31;20122;-66
2023/06/25 05:56:54;;;;;;;8.88;6.93;;;;;;;20.68;100.00;98892.44;4485763;32;20171;-66
2023/06/25 05:59:21;;;;;;;10.73;7.10;;;;;;;20.72;100.00;98891.00;4485995;31;20442;-66
2023/06/25 06:01:48;;;;;;;11.07;6.80;;;;;;;20.84;100.00;98901.06;4485756;31;20133;-66
2023/06/25 06:04:15;;;;;;;8.45;6.75;;;;;;;21.15;100.00;98891.69;4485903;31;20079;-66
2023/06/25 06:06:46;;;;;;;8.80;6.57;;;;;;;21.29;100.00;98898.72;4485838;31;20140;-66
2023/06/25 06:09:13;;;;;;;10.43;7.68;;;;;;;21.52;100.00;98903.66;4483980;31;20119;-66
2023/06/25 06:11:41;;;;;;;9.75;6.80;;;;;;;21.66;100.00;98898.34;4469920;32;20161;-66
2023/06/25 06:14:08;;;;;;;9.27;5.95;;;;;;;21.91;100.00;98896.66;4481238;32;20439;-66
2023/06/25 06:16:36;;;;;;;6.70;3.92;;;;;;;21.79;100.00;98898.34;4485651;31;20089;-66
2023/06/25 06:19:03;;;;;;;7.00;3.50;;;;;;;21.90;100.00;98899.53;4485748;31;20096;-66
2023/06/25 06:21:30;;;;;;;9.32;6.75;;;;;;;21.62;100.00;98905.94;4485409;31;20394;-66
2023/06/25 06:23:57;;;;;;;11.20;7.93;;;;;;;21.41;100.00;98904.25;4485801;32;20110;-66
2023/06/25 06:26:26;;;;;;;12.70;8.65;;;;;;;21.15;100.00;98913.03;4485522;31;20531;-66
2023/06/25 06:28:53;;;;;;;11.93;8.40;;;;;;;21.14;100.00;98914.06;4485167;31;20177;-66
2023/06/25 06:31:21;;;;;;;12.82;8.70;;;;;;;21.12;100.00;98913.41;4485140;31;20458;-66
2023/06/25 06:33:49;;;;;;;10.60;7.95;;;;;;;21.19;100.00;98914.25;4485563;31;20084;-66
2023/06/25 06:36:16;;;;;;;11.50;8.05;;;;;;;21.28;100.00;98908.53;4485421;31;20144;-66
2023/06/25 06:38:43;;;;;;;10.60;7.87;;;;;;;21.47;100.00;98913.25;4485531;31;20513;-66
2023/06/25 06:41:11;;;;;;;10.45;7.32;;;;;;;21.58;100.00;98918.03;4485321;31;20096;-66
2023/06/25 06:43:38;;;;;;;11.68;7.97;;;;;;;21.73;100.00;98915.16;4484098;32;20116;-66
2023/06/25 06:46:05;;;;;;;10.57;7.97;;;;;;;21.71;100.00;98912.69;4485285;32;20096;-66
2023/06/25 06:48:35;;;;;;;9.70;7.57;;;;;;;21.74;100.00;98920.28;4485474;31;20135;-66
2023/06/25 06:51:02;;;;;;;12.77;6.55;;;;;;;21.73;100.00;98910.63;4485371;31;20156;-66
2023/06/25 06:53:29;;;;;;;11.57;7.37;;;;;;;21.66;100.00;98914.34;4485177;31;20114;-66
2023/06/25 06:55:56;;;;;;;10.05;7.18;;;;;;;21.85;100.00;98915.31;4485312;31;20097;-66
2023/06/25 06:58:25;;;;;;;10.77;7.53;;;;;;;22.04;100.00;98906.47;4485259;31;20096;-66
2023/06/25 07:00:52;;;;;;;10.02;6.65;;;;;;;;;;4485195;31;20084;-66
2023/06/25 07:03:19;;;;;;;10.57;7.18;;;;;;;22.56;100.00;98911.94;4485357;31;20103;-66
2023/06/25 07:05:46;;;;;;;10.88;6.78;;;;;;;22.77;100.00;98910.81;4485151;31;20131;-66
2023/06/25 07:08:14;;;;;;;9.32;6.87;;;;;;;22.93;100.00;98912.16;4484009;32;20173;-66
2023/06/25 07:10:41;;;;;;;10.40;7.35;;;;;;;22.98;100.00;98906.16;4474171;31;20164;-66
2023/06/25 07:13:08;;;;;;;8.30;6.72;;;;;;;23.08;100.00;98913.72;4474119;32;20497;-66
2023/06/25 07:15:37;;;;;;;8.95;7.37;;;;;;;22.82;100.00;98908.31;4485427;31;20150;-66
2023/06/25 07:18:06;;;;;;;10.50;7.18;;;;;;;22.89;100.00;98912.78;4485040;31;20155;-66
2023/06/25 07:20:33;;;;;;;14.27;6.82;;;;;;;23.09;100.00;98918.00;4485103;31;20100;-66
2023/06/25 07:23:00;;;;;;;13.60;7.30;;;;;;;22.94;100.00;98915.66;4485133;31;20136;-66
2023/06/25 07:25:27;;;;;;;11.80;7.25;;;;;;;23.01;100.00;98917.25;4485039;31;20096;-66
2023/06/25 07:27:54;;;;;;;12.90;7.30;;;;;;;23.14;100.00;98911.03;4485136;31;20108;-66
2023/06/25 07:30:21;;;;;;;9.60;6.82;;;;;;;23.37;100.00;98905.09;4485077;31;20123;-66
2023/06/25 07:32:49;;;;;;;12.48;6.40;;;;;;;23.53;100.00;98911.78;4484693;31;20076;-66
2023/06/25 07:35:16;;;;;;;8.05;5.90;;;;;;;23.60;100.00;98902.87;4485088;31;20085;-66
2023/06/25 07:37:43;;;;;;;9.90;6.18;;;;;;;23.60;100.00;98908.25;4484972;31;20118;-66
2023/06/25 07:40:11;;;;;;;9.50;6.30;;;;;;;23.96;100.00;98904.03;4484948;32;20581;-66
2023/06/25 07:42:38;;;;;;;7.78;5.85;;;;;;;24.09;100.00;98902.03;4484853;31;20118;-66
2023/06/25 07:45:06;;;;;;;6.28;5.10;;;;;;;24.08;100.00;98911.09;4485351;31;20120;-66
2023/06/25 07:47:33;;;;;;;6.65;5.20;;;;;;;24.16;100.00;98912.66;4485033;31;20100;-66
2023/06/25 07:50:00;;;;;;;7.78;5.07;;;;;;;24.08;100.00;98912.97;4484858;31;20498;-66
2023/06/25 07:52:27;;;;;;;8.10;6.20;;;;;;;24.07;100.00;98903.28;4484888;31;20122;-66
2023/06/25 07:54:55;;;;;;;9.20;6.60;;;;;;;24.20;100.00;98902.34;4485039;31;20093;-66
2023/06/25 07:57:22;;;;;;;12.23;7.90;;;;;;;24.44;100.00;98908.66;4484697;31;20096;-66
2023/06/25 07:59:49;;;;;;;9.57;6.90;;;;;;;24.22;100.00;98900.25;4484981;31;20478;-66
2023/06/25 08:02:20;;;;;;;9.15;6.70;;;;;;;24.07;100.00;98911.31;4484880;31;20522;-66
2023/06/25 08:04:49;;;;;;;8.02;5.97;;;;;;;23.74;100.00;98913.25;4485140;31;20104;-66
2023/06/25 08:07:17;;;;;;;9.40;7.28;;;;;;;23.62;100.00;98911.50;4484814;31;20104;-66
2023/06/25 08:09:45;;;;;;;9.07;6.95;;;;;;;23.52;100.00;98907.47;4479866;31;20127;-66
2023/06/25 08:12:14;;;;;;;8.85;6.60;;;;;;;23.32;100.00;98902.28;4468890;32;20104;-66
2023/06/25 08:14:43;;;;;;;10.43;6.82;;;;;;;23.06;100.00;98913.94;4482545;32;20139;-66
2023/06/25 08:17:10;;;;;;;10.60;7.00;;;;;;;23.18;100.00;98908.72;4484478;31;20101;-66
2023/06/25 08:19:39;;;;;;;10.63;7.28;;;;;;;23.26;100.00;98902.34;4484624;32;20148;-66
2023/06/25 08:22:06;;;;;;;9.40;6.85;;;;;;;23.55;100.00;98912.38;4484390;31;20126;-66
2023/06/25 08:24:34;;;;;;;6.90;5.82;;;;;;;23.81;100.00;98913.19;4483619;32;20108;-66
2023/06/25 08:27:01;;;;;;;9.05;6.43;;;;;;;24.31;100.00;98908.81;4484436;31;20100;-66
2023/06/25 08:29:29;;;;;;;7.55;5.78;;;;;;;24.30;100.00;98907.16;4484593;31;20453;-66
2023/06/25 08:31:56;;;;;;;7.60;5.87;;;;;;;24.62;100.00;98905.19;4484390;31;20185;-66
2023/06/25 08:34:23;;;;;;;6.78;4.93;;;;;;;24.88;100.00;98905.88;4484221;31;20167;-66
2023/06/25 08:36:51;;;;;;;7.87;5.45;;;;;;;24.70;100.00;98906.75;4483357;32;20758;-66
2023/06/25 08:39:17;;;;;;;8.65;5.53;;;;;;;25.19;100.00;98904.81;4484095;31;20164;-66
2023/06/25 08:41:45;;;;;;;7.65;4.82;;;;;;;25.22;100.00;98898.97;4484477;31;20772;-66
2023/06/25 08:44:12;;;;;;;5.15;3.92;;;;;;;25.10;100.00;98898.97;4484343;31;20097;-66
2023/06/25 08:46:47;;;;;;;5.30;4.25;;;;;;;25.29;100.00;98905.09;4484452;31;20112;-66
2023/06/25 08:49:16;;;;;;;5.95;4.03;;;;;;;25.35;100.00;98897.19;4484273;31;20108;-66
2023/06/25 08:51:43;;;;;;;6.72;4.70;;;;;;;25.37;100.00;98900.47;4484297;31;20084;-66
2023/06/25 08:54:10;;;;;;;5.57;4.30;;;;;;;24.84;100.00;98893.97;4485999;31;20115;-66
2023/06/25 08:56:37;;;;;;;4.45;3.90;;;;;;;24.91;100.00;98898.19;4485042;32;20164;-66
2023/06/25 08:59:04;;;;;;;5.20;3.72;;;;;;;25.13;100.00;98903.87;4484822;32;20120;-66
2023/06/25 09:01:32;;;;;;;4.50;3.97;;;;;;;25.46;100.00;98894.50;4486060;31;20111;-66
2023/06/25 09:03:59;;;;;;;5.93;3.60;;;;;;;25.47;100.00;98890.78;4485775;31;20112;-66
2023/06/25 09:06:26;;;;;;;5.82;4.35;;;;;;;26.16;100.00;98892.94;4485160;32;20487;-66
2023/06/25 09:08:53;;;;;;;5.90;4.07;;;;;;;26.30;96.83;98885.41;4486007;31;20096;-66
2023/06/25 09:11:21;;;;;;;7.00;4.22;;;;;;;26.13;97.19;98889.88;4470569;32;20214;-66
2023/06/25 09:13:48;;;;;;;5.20;4.40;;;;;;;25.96;96.83;98893.25;4479279;32;20165;-66
2023/06/25 09:16:15;;;;;;;4.93;4.00;;;;;;;25.94;94.47;98884.62;4485997;31;20111;-66
2023/06/25 09:18:43;;;;;;;5.12;4.10;;;;;;;25.85;98.68;98894.09;4486038;31;20183;-67
2023/06/25 09:21:10;;;;;;;4.95;4.15;;;;;;;25.93;96.84;98887.53;4485995;31;20084;-66
2023/06/25 09:23:38;;;;;;;4.85;3.62;;;;;;;26.19;93.75;98880.87;4485887;31;20089;-66
2023/06/25 09:26:08;;;;;;;5.93;3.35;;;;;;;26.49;93.02;98875.31;4486063;31;20096;-66
2023/06/25 09:28:52;;;;;;;3.85;3.17;;;;;;;26.55;93.22;98879.72;4485885;31;20105;-66
2023/06/25 09:31:20;;;;;;;5.12;3.28;;;;;;;26.70;86.28;98883.81;4486048;31;20106;-66
2023/06/25 09:33:54;;;;;;;4.07;3.50;;;;;;;26.54;87.52;98879.97;4485829;31;20108;-66
2023/06/25 09:36:21;;;;;;;4.00;3.30;;;;;;;26.42;87.48;98873.81;4485909;32;20133;-66
2023/06/25 09:38:53;;;;;;;4.37;3.33;;;;;;;26.45;86.71;98873.34;4485862;31;20139;-66
2023/06/25 09:41:21;;;;;;;3.83;3.15;;;;;;;26.73;84.27;98870.69;4486118;31;20113;-66
2023/06/25 09:43:49;;;;;;;4.87;3.40;;;;;;;27.23;84.56;98874.53;4484566;32;20097;-66
2023/06/25 09:46:18;;;;;;;4.80;3.60;;;;;;;27.33;82.92;98873.94;4484782;32;20171;-66
2023/06/25 09:48:45;;;;;;;5.32;4.03;;;;;;;27.60;84.86;98875.94;4484643;32;20163;-67
2023/06/25 09:51:14;;;;;;;3.78;3.42;;;;;;;28.07;82.91;98878.28;4484814;32;20096;-66
2023/06/25 09:53:43;;;;;;;3.00;1.92;;;;;;;27.87;81.13;98870.69;4484365;32;20104;-66
2023/06/25 09:56:11;;;;;;;1.98;1.45;;;;;;;28.01;68.19;98873.87;4484468;32;20433;-66
2023/06/25 09:58:39;;;;;;;1.23;1.12;;;;;;;28.27;59.88;98864.25;4484607;32;20552;-66
2023/06/25 10:01:07;;;;;;;2.10;1.45;;;;;;;28.00;59.56;98864.16;4486041;31;20102;-67
2023/06/25 10:03:35;;;;;;;1.33;1.10;;;;;;;28.07;61.59;98861.28;4485586;31;20274;-66
2023/06/25 10:06:03;;;;;;;2.15;1.50;;;;;;;27.90;57.96;98855.91;4485670;31;20191;-66
2023/06/25 10:08:31;;;;;;;1.87;1.40;;;;;;;26.73;60.87;98851.88;4484458;32;20485;-66
2023/06/25 10:11:00;;;;;;;1.92;1.50;;;;;;;27.01;60.13;98854.78;4472487;31;20123;-66
2023/06/25 10:13:27;;;;;;;2.10;1.50;;;;;;;27.11;59.32;98849.59;4476707;32;20092;-66
2023/06/25 10:15:59;;;;;;;2.08;1.40;;;;;;;27.24;57.72;98853.84;4484256;32;20117;-66
2023/06/25 10:18:26;;;;;;;2.08;1.45;;;;;;;27.64;56.70;98855.56;4485694;31;20163;-66
2023/06/25 10:20:58;;;;;;;4.03;1.65;;;;;;;27.62;56.62;98855.78;4485422;31;20567;-66
2023/06/25 10:23:26;;;;;;;2.22;1.50;;;;;;;27.96;60.76;98853.09;4485668;31;20239;-66
2023/06/25 10:25:57;;;;;;;3.65;1.33;;;;;;;28.35;59.64;98843.31;4485884;31;20839;-66
2023/06/25 10:28:31;;;;;;;2.87;1.67;;;;;;;27.86;55.45;98852.91;4485510;31;20123;-66
2023/06/25 10:31:13;;;;;;;2.60;1.52;;;;;;;27.64;55.21;98852.84;4485555;31;20145;-66
2023/06/25 10:33:40;;;;;;;3.83;1.50;;;;;;;27.29;54.80;98850.41;4485340;31;20092;-66
2023/06/25 10:36:08;;;;;;;3.15;1.52;;;;;;;27.92;54.83;98849.22;4485479;32;20138;-66
2023/06/25 10:38:36;;;;;;;3.95;1.30;;;;;;;28.12;55.60;98843.31;4485462;31;20092;-66
2023/06/25 10:41:03;;;;;;;2.60;1.77;;;;;;;27.51;55.15;98847.81;4485358;31;20443;-67
2023/06/25 10:43:31;;;;;;;2.42;1.80;;;;;;;27.25;55.76;98850.91;4485554;32;20157;-67
2023/06/25 10:45:58;;;;;;;2.42;1.25;;;;;;;26.86;57.13;98847.25;4485391;31;20114;-66
2023/06/25 10:48:25;;;;;;;2.15;1.40;;;;;;;27.57;54.03;98841.44;4485525;31;20167;-67
2023/06/25 10:50:53;;;;;;;6.60;2.00;;;;;;;27.45;55.31;98849.63;4485328;31;20100;-66
2023/06/25 10:53:22;;;;;;;2.05;1.65;;;;;;;27.56;57.00;98839.84;4485387;31;20093;-67
2023/06/25 10:55:53;;;;;;;3.80;1.62;;;;;;;27.77;55.64;98841.75;4485353;31;20155;-66
2023/06/25 10:58:22;;;;;;;2.37;1.87;;;;;;;28.04;52.89;98838.38;4485277;31;20167;-66
2023/06/25 11:00:54;;;;;;;2.22;1.62;;;;;;;28.84;53.54;98838.75;4485442;31;20092;-66
2023/06/25 11:03:23;;;;;;;2.00;1.60;;;;;;;28.85;50.19;98832.25;4485436;31;20554;-67
2023/06/25 11:05:50;;;;;;;1.77;1.50;;;;;;;29.03;52.64;98836.47;4485391;31;20167;-67
2023/06/25 11:08:18;;;;;;;1.73;1.52;;;;;;;29.22;49.61;98830.72;4485158;32;20164;-66
2023/06/25 11:10:45;;;;;;;2.03;1.70;;;;;;;29.70;51.16;98836.16;4473633;32;20100;-67
2023/06/25 11:13:13;;;;;;;3.05;1.90;;;;;;;29.46;48.34;98833.06;4474747;32;20123;-67
2023/06/25 11:15:40;;;;;;;2.87;1.23;;;;;;;28.60;50.04;98829.31;4484633;31;20126;-66
2023/06/25 11:18:08;;;;;;;2.42;1.52;;;;;;;28.67;47.45;98828.03;4485354;31;20088;-66
2023/06/25 11:20:38;;;;;;;1.77;1.35;;;;;;;28.48;50.67;98824.88;4485272;31;20379;-67
2023/06/25 11:23:07;;;;;;;1.80;1.50;;;;;;;28.59;49.04;98824.97;4485531;32;20521;-66
2023/06/25 11:25:34;;;;;;;3.58;1.52;;;;;;;28.53;48.64;98820.59;4485240;31;20101;-67
2023/06/25 11:28:11;;;;;;;1.98;1.42;;;;;;;28.22;49.38;98815.69;4479269;32;20309;-66